Michurinsk, Russia
Current Conditions -  °F | °C
As of 10:00 PM on Friday 28 Nov 2014 (Local Time) from UUOO Reporting Station
Clear Clear  
Wind Chill: 13°   Ceiling: Unl
Heat Index: 25°   Visibility: 6mi
Dew Point:   Wind: 13mph
Humidity: 36%   Direction: 100°E
Pressure: 30.48"   Gusts: NA
Location:  52.9°N, 40.5°E
Report Text: UUOO 281900Z 10006MPS CAVOK M04/M17 Q1032 NOSIG RMK 12090070
Loading
Personal Weather Stations






























Interactive Weather Map New forecast layout! Learn more

10-Day Weather Forecast

Advertisements
Track Severe Weather on mobile